sensor_id;sensor_type;location;lat;lon;timestamp;pressure;altitude;pressure_sealevel;temperature;humidity
8318;BME280;4196;48.926;8.964;2022-10-31T00:01:38;99552.59;;;8.82;100.00
8318;BME280;4196;48.926;8.964;2022-10-31T00:04:24;99540.47;;;8.78;100.00
8318;BME280;4196;48.926;8.964;2022-10-31T00:07:11;99540.47;;;8.77;100.00
8318;BME280;4196;48.926;8.964;2022-10-31T00:09:57;99556.84;;;8.79;100.00
8318;BME280;4196;48.926;8.964;2022-10-31T00:12:43;99547.28;;;8.71;100.00
8318;BME280;4196;48.926;8.964;2022-10-31T00:15:30;99553.38;;;8.77;100.00
8318;BME280;4196;48.926;8.964;2022-10-31T00:18:16;99558.50;;;8.75;100.00
8318;BME280;4196;48.926;8.964;2022-10-31T00:21:03;99552.44;;;8.71;100.00
8318;BME280;4196;48.926;8.964;2022-10-31T00:23:49;99552.44;;;8.70;100.00
8318;BME280;4196;48.926;8.964;2022-10-31T00:26:36;99551.59;;;8.71;100.00
8318;BME280;4196;48.926;8.964;2022-10-31T00:29:23;99543.78;;;8.68;100.00
8318;BME280;4196;48.926;8.964;2022-10-31T00:32:09;99548.94;;;8.66;100.00
8318;BME280;4196;48.926;8.964;2022-10-31T00:34:55;99549.81;;;8.65;100.00
8318;BME280;4196;48.926;8.964;2022-10-31T00:37:41;99417.06;;;7.83;100.00
8318;BME280;4196;48.926;8.964;2022-10-31T00:40:28;99532.38;;;8.48;100.00
8318;BME280;4196;48.926;8.964;2022-10-31T00:43:14;99545.31;;;8.51;100.00
8318;BME280;4196;48.926;8.964;2022-10-31T00:46:01;99548.66;;;8.43;100.00
8318;BME280;4196;48.926;8.964;2022-10-31T00:48:47;99525.16;;;8.28;100.00
8318;BME280;4196;48.926;8.964;2022-10-31T00:51:33;99547.75;;;8.41;100.00
8318;BME280;4196;48.926;8.964;2022-10-31T00:54:20;99551.19;;;8.40;100.00
8318;BME280;4196;48.926;8.964;2022-10-31T00:57:07;99542.47;;;8.35;100.00
8318;BME280;4196;48.926;8.964;2022-10-31T00:59:53;99543.34;;;8.36;100.00
8318;BME280;4196;48.926;8.964;2022-10-31T01:02:40;99529.50;;;8.29;100.00
8318;BME280;4196;48.926;8.964;2022-10-31T01:05:26;99545.91;;;8.34;100.00
8318;BME280;4196;48.926;8.964;2022-10-31T01:08:12;99544.13;;;8.30;100.00
8318;BME280;4196;48.926;8.964;2022-10-31T01:13:52;99547.50;;;8.26;100.00
8318;BME280;4196;48.926;8.964;2022-10-31T01:16:39;99546.63;;;8.26;100.00
8318;BME280;4196;48.926;8.964;2022-10-31T01:19:25;99519.78;;;8.13;100.00
8318;BME280;4196;48.926;8.964;2022-10-31T01:22:15;99537.94;;;8.19;100.00
8318;BME280;4196;48.926;8.964;2022-10-31T01:25:02;99518.88;;;8.08;100.00
8318;BME280;4196;48.926;8.964;2022-10-31T01:27:49;99520.63;;;8.10;100.00
8318;BME280;4196;48.926;8.964;2022-10-31T01:30:35;99540.63;;;8.25;100.00
8318;BME280;4196;48.926;8.964;2022-10-31T01:33:21;99537.09;;;8.20;100.00
8318;BME280;4196;48.926;8.964;2022-10-31T01:36:22;99544.88;;;8.23;100.00
8318;BME280;4196;48.926;8.964;2022-10-31T01:39:12;99546.53;;;8.18;100.00
8318;BME280;4196;48.926;8.964;2022-10-31T01:41:59;99541.22;;;8.07;100.00
8318;BME280;4196;48.926;8.964;2022-10-31T01:44:52;99538.59;;;8.06;100.00
8318;BME280;4196;48.926;8.964;2022-10-31T01:47:43;99541.97;;;8.02;100.00
8318;BME280;4196;48.926;8.964;2022-10-31T01:50:35;99515.09;;;7.86;100.00
8318;BME280;4196;48.926;8.964;2022-10-31T01:53:23;99541.91;;;7.98;100.00
8318;BME280;4196;48.926;8.964;2022-10-31T01:56:13;99531.59;;;7.97;100.00
8318;BME280;4196;48.926;8.964;2022-10-31T01:59:04;99529.81;;;7.94;100.00
8318;BME280;4196;48.926;8.964;2022-10-31T02:01:53;99538.41;;;7.93;100.00
8318;BME280;4196;48.926;8.964;2022-10-31T02:04:41;99526.22;;;7.83;100.00
8318;BME280;4196;48.926;8.964;2022-10-31T02:07:36;99548.63;;;7.87;100.00
8318;BME280;4196;48.926;8.964;2022-10-31T02:10:24;99536.47;;;7.80;100.00
8318;BME280;4196;48.926;8.964;2022-10-31T02:13:12;99525.91;;;7.65;100.00
8318;BME280;4196;48.926;8.964;2022-10-31T02:16:05;99536.34;;;7.71;100.00
8318;BME280;4196;48.926;8.964;2022-10-31T02:18:53;99542.31;;;7.68;100.00
8318;BME280;4196;48.926;8.964;2022-10-31T02:21:50;99538.00;;;7.69;100.00
8318;BME280;4196;48.926;8.964;2022-10-31T02:34:06;99542.09;;;7.56;100.00
8318;BME280;4196;48.926;8.964;2022-10-31T02:37:04;99525.66;;;7.48;100.00
8318;BME280;4196;48.926;8.964;2022-10-31T02:40:03;99528.31;;;7.53;100.00
8318;BME280;4196;48.926;8.964;2022-10-31T02:43:32;99523.16;;;7.53;100.00
8318;BME280;4196;48.926;8.964;2022-10-31T02:52:28;99524.06;;;7.58;100.00
8318;BME280;4196;48.926;8.964;2022-10-31T02:58:21;99514.56;;;7.54;100.00
8318;BME280;4196;48.926;8.964;2022-10-31T03:10:35;99524.06;;;7.56;100.00
8318;BME280;4196;48.926;8.964;2022-10-31T03:13:50;99530.06;;;7.55;100.00
8318;BME280;4196;48.926;8.964;2022-10-31T03:16:50;99537.81;;;7.58;100.00
8318;BME280;4196;48.926;8.964;2022-10-31T03:19:49;99541.13;;;7.49;100.00
8318;BME280;4196;48.926;8.964;2022-10-31T03:22:40;99545.34;;;7.44;100.00
8318;BME280;4196;48.926;8.964;2022-10-31T03:25:28;99535.81;;;7.40;100.00
8318;BME280;4196;48.926;8.964;2022-10-31T03:28:19;99539.16;;;7.36;100.00
8318;BME280;4196;48.926;8.964;2022-10-31T03:31:10;99535.91;;;7.46;100.00
8318;BME280;4196;48.926;8.964;2022-10-31T03:33:59;99535.69;;;7.34;100.00
8318;BME280;4196;48.926;8.964;2022-10-31T03:36:51;99537.34;;;7.29;100.00
8318;BME280;4196;48.926;8.964;2022-10-31T03:39:40;99537.22;;;7.23;100.00
8318;BME280;4196;48.926;8.964;2022-10-31T03:42:31;99535.66;;;7.31;100.00
8318;BME280;4196;48.926;8.964;2022-10-31T03:45:24;99533.91;;;7.30;100.00
8318;BME280;4196;48.926;8.964;2022-10-31T03:48:18;99530.34;;;7.23;100.00
8318;BME280;4196;48.926;8.964;2022-10-31T03:51:22;99528.72;;;7.27;100.00
8318;BME280;4196;48.926;8.964;2022-10-31T03:54:28;99538.16;;;7.26;100.00
8318;BME280;4196;48.926;8.964;2022-10-31T03:57:38;99527.66;;;7.17;100.00
8318;BME280;4196;48.926;8.964;2022-10-31T04:00:26;99514.56;;;7.07;100.00
8318;BME280;4196;48.926;8.964;2022-10-31T04:03:17;99529.28;;;7.12;100.00
8318;BME280;4196;48.926;8.964;2022-10-31T04:06:10;99521.38;;;7.01;100.00
8318;BME280;4196;48.926;8.964;2022-10-31T04:09:02;99532.53;;;7.02;100.00
8318;BME280;4196;48.926;8.964;2022-10-31T04:11:52;99524.78;;;7.00;100.00
8318;BME280;4196;48.926;8.964;2022-10-31T04:15:09;99516.22;;;7.01;100.00
8318;BME280;4196;48.926;8.964;2022-10-31T04:17:59;99529.31;;;7.14;100.00
8318;BME280;4196;48.926;8.964;2022-10-31T04:20:47;99515.75;;;7.22;100.00
8318;BME280;4196;48.926;8.964;2022-10-31T04:23:37;99511.63;;;7.32;100.00
8318;BME280;4196;48.926;8.964;2022-10-31T04:26:32;99513.38;;;7.33;100.00
8318;BME280;4196;48.926;8.964;2022-10-31T04:29:19;99505.53;;;7.29;100.00
8318;BME280;4196;48.926;8.964;2022-10-31T04:32:05;99516.88;;;7.38;100.00
8318;BME280;4196;48.926;8.964;2022-10-31T04:34:52;99481.88;;;7.01;100.00
8318;BME280;4196;48.926;8.964;2022-10-31T04:37:40;99513.69;;;7.05;100.00
8318;BME280;4196;48.926;8.964;2022-10-31T04:40:27;99514.56;;;7.07;100.00
8318;BME280;4196;48.926;8.964;2022-10-31T04:43:13;99516.50;;;7.17;100.00
8318;BME280;4196;48.926;8.964;2022-10-31T04:46:02;99507.88;;;7.15;100.00
8318;BME280;4196;48.926;8.964;2022-10-31T04:48:49;99497.41;;;7.06;100.00
8318;BME280;4196;48.926;8.964;2022-10-31T04:51:35;99512.84;;;7.06;100.00
8318;BME280;4196;48.926;8.964;2022-10-31T04:54:22;99513.13;;;7.21;100.00
8318;BME280;4196;48.926;8.964;2022-10-31T04:57:31;99502.03;;;7.25;100.00
8318;BME280;4196;48.926;8.964;2022-10-31T05:00:22;99495.22;;;7.29;100.00
8318;BME280;4196;48.926;8.964;2022-10-31T05:03:10;99496.00;;;7.23;100.00
8318;BME280;4196;48.926;8.964;2022-10-31T05:05:56;99491.59;;;7.17;100.00
8318;BME280;4196;48.926;8.964;2022-10-31T05:08:43;99483.88;;;7.16;100.00
8318;BME280;4196;48.926;8.964;2022-10-31T05:11:30;99492.47;;;7.18;100.00
8318;BME280;4196;48.926;8.964;2022-10-31T05:14:27;99457.00;;;7.01;100.00
8318;BME280;4196;48.926;8.964;2022-10-31T05:17:33;99475.16;;;7.08;100.00
8318;BME280;4196;48.926;8.964;2022-10-31T05:20:40;99488.16;;;7.17;100.00
8318;BME280;4196;48.926;8.964;2022-10-31T05:24:04;99463.84;;;7.01;100.00
8318;BME280;4196;48.926;8.964;2022-10-31T05:26:52;99488.16;;;7.17;100.00
8318;BME280;4196;48.926;8.964;2022-10-31T05:29:39;99464.13;;;7.16;100.00
8318;BME280;4196;48.926;8.964;2022-10-31T05:32:25;99478.72;;;7.16;100.00
8318;BME280;4196;48.926;8.964;2022-10-31T05:35:31;99467.22;;;6.97;100.00
8318;BME280;4196;48.926;8.964;2022-10-31T05:38:36;99471.53;;;6.99;100.00
8318;BME280;4196;48.926;8.964;2022-10-31T05:41:31;99481.94;;;7.04;100.00
8318;BME280;4196;48.926;8.964;2022-10-31T05:44:25;99468.09;;;6.97;100.00
8318;BME280;4196;48.926;8.964;2022-10-31T05:47:23;99450.56;;;6.78;100.00
8318;BME280;4196;48.926;8.964;2022-10-31T05:50:30;99464.38;;;6.82;100.00
8318;BME280;4196;48.926;8.964;2022-10-31T05:53:27;99477.97;;;6.76;100.00
8318;BME280;4196;48.926;8.964;2022-10-31T05:56:14;99457.09;;;6.62;100.00
8318;BME280;4196;48.926;8.964;2022-10-31T05:59:00;99459.66;;;6.59;100.00
8318;BME280;4196;48.926;8.964;2022-10-31T06:01:47;99453.50;;;6.52;100.00
8318;BME280;4196;48.926;8.964;2022-10-31T06:04:56;99479.53;;;6.68;100.00
8318;BME280;4196;48.926;8.964;2022-10-31T06:07:44;99471.72;;;6.63;100.00
8318;BME280;4196;48.926;8.964;2022-10-31T06:10:30;99473.53;;;6.69;100.00
8318;BME280;4196;48.926;8.964;2022-10-31T06:13:17;99462.38;;;6.68;100.00
8318;BME280;4196;48.926;8.964;2022-10-31T06:16:08;99468.25;;;6.63;100.00
8318;BME280;4196;48.926;8.964;2022-10-31T06:18:57;99452.56;;;6.49;100.00
8318;BME280;4196;48.926;8.964;2022-10-31T06:21:44;99476.81;;;6.60;100.00
8318;BME280;4196;48.926;8.964;2022-10-31T06:24:31;99457.75;;;6.50;100.00
8318;BME280;4196;48.926;8.964;2022-10-31T06:27:23;99462.09;;;6.54;100.00
8318;BME280;4196;48.926;8.964;2022-10-31T06:30:10;99465.53;;;6.53;100.00
8318;BME280;4196;48.926;8.964;2022-10-31T06:33:05;99445.75;;;6.51;100.00
8318;BME280;4196;48.926;8.964;2022-10-31T06:35:56;99444.09;;;6.54;100.00
8318;BME280;4196;48.926;8.964;2022-10-31T06:38:43;99461.53;;;6.69;100.00
8318;BME280;4196;48.926;8.964;2022-10-31T06:41:31;99461.59;;;6.72;100.00
8318;BME280;4196;48.926;8.964;2022-10-31T06:44:17;99471.25;;;6.84;100.00
8318;BME280;4196;48.926;8.964;2022-10-31T06:47:30;99464.66;;;6.98;100.00
8318;BME280;4196;48.926;8.964;2022-10-31T06:50:30;99453.56;;;7.01;100.00
8318;BME280;4196;48.926;8.964;2022-10-31T06:53:16;99475.16;;;7.08;100.00
8318;BME280;4196;48.926;8.964;2022-10-31T06:56:02;99463.00;;;7.00;100.00
8318;BME280;4196;48.926;8.964;2022-10-31T06:58:54;99470.00;;;7.08;100.00
8318;BME280;4196;48.926;8.964;2022-10-31T07:01:58;99475.97;;;7.07;100.00
8318;BME280;4196;48.926;8.964;2022-10-31T07:04:45;99461.22;;;6.96;100.00
8318;BME280;4196;48.926;8.964;2022-10-31T07:07:33;99476.84;;;7.07;100.00
8318;BME280;4196;48.926;8.964;2022-10-31T07:10:20;99465.59;;;7.02;100.00
8318;BME280;4196;48.926;8.964;2022-10-31T07:13:14;99496.75;;;7.17;100.00
8318;BME280;4196;48.926;8.964;2022-10-31T07:16:08;99495.16;;;7.22;100.00
8318;BME280;4196;48.926;8.964;2022-10-31T07:18:58;99496.16;;;7.32;100.00
8318;BME280;4196;48.926;8.964;2022-10-31T07:21:45;99490.97;;;7.29;100.00
8318;BME280;4196;48.926;8.964;2022-10-31T07:24:33;99440.06;;;7.14;100.00
8318;BME280;4196;48.926;8.964;2022-10-31T07:27:39;99502.59;;;7.56;100.00
8318;BME280;4196;48.926;8.964;2022-10-31T07:30:30;99486.16;;;7.50;100.00
8318;BME280;4196;48.926;8.964;2022-10-31T07:33:16;99473.16;;;7.41;100.00
8318;BME280;4196;48.926;8.964;2022-10-31T07:36:38;99500.94;;;7.59;100.00
8318;BME280;4196;48.926;8.964;2022-10-31T07:39:24;99472.25;;;7.39;100.00
8318;BME280;4196;48.926;8.964;2022-10-31T07:42:10;99475.00;;;7.50;100.00
8318;BME280;4196;48.926;8.964;2022-10-31T07:45:03;99498.59;;;7.76;100.00
8318;BME280;4196;48.926;8.964;2022-10-31T07:48:15;99499.63;;;7.86;100.00
8318;BME280;4196;48.926;8.964;2022-10-31T07:51:20;99479.91;;;7.89;100.00
8318;BME280;4196;48.926;8.964;2022-10-31T07:54:26;99505.06;;;8.06;100.00
8318;BME280;4196;48.926;8.964;2022-10-31T07:57:12;99474.75;;;7.89;100.00
8318;BME280;4196;48.926;8.964;2022-10-31T08:00:07;99507.03;;;8.23;100.00
8318;BME280;4196;48.926;8.964;2022-10-31T08:03:01;99505.31;;;8.24;100.00
8318;BME280;4196;48.926;8.964;2022-10-31T08:06:07;99481.28;;;8.25;100.00
8318;BME280;4196;48.926;8.964;2022-10-31T08:09:13;99506.56;;;8.48;100.00
8318;BME280;4196;48.926;8.964;2022-10-31T08:12:02;99502.31;;;8.54;100.00
8318;BME280;4196;48.926;8.964;2022-10-31T08:14:50;99493.03;;;8.67;100.00
8318;BME280;4196;48.926;8.964;2022-10-31T08:17:38;99450.72;;;8.57;100.00
8318;BME280;4196;48.926;8.964;2022-10-31T08:20:25;99473.44;;;8.84;100.00
8318;BME280;4196;48.926;8.964;2022-10-31T08:23:13;99478.00;;;9.10;100.00
8318;BME280;4196;48.926;8.964;2022-10-31T08:26:01;99470.25;;;9.10;100.00
8318;BME280;4196;48.926;8.964;2022-10-31T08:28:49;99476.34;;;9.18;100.00
8318;BME280;4196;48.926;8.964;2022-10-31T08:31:38;99447.03;;;9.14;100.00
8318;BME280;4196;48.926;8.964;2022-10-31T08:34:47;99461.78;;;9.26;100.00
8318;BME280;4196;48.926;8.964;2022-10-31T08:38:02;99470.63;;;9.53;100.00
8318;BME280;4196;48.926;8.964;2022-10-31T08:40:49;99432.69;;;9.47;100.00
8318;BME280;4196;48.926;8.964;2022-10-31T08:43:36;99428.44;;;9.54;100.00
8318;BME280;4196;48.926;8.964;2022-10-31T08:46:22;99448.47;;;9.90;100.00
8318;BME280;4196;48.926;8.964;2022-10-31T08:49:08;99449.38;;;9.93;100.00
8318;BME280;4196;48.926;8.964;2022-10-31T08:51:55;99436.59;;;10.16;100.00
8318;BME280;4196;48.926;8.964;2022-10-31T08:54:44;99443.59;;;10.37;100.00
8318;BME280;4196;48.926;8.964;2022-10-31T08:57:54;99457.47;;;10.55;100.00
8318;BME280;4196;48.926;8.964;2022-10-31T09:00:42;99440.19;;;10.51;100.00
8318;BME280;4196;48.926;8.964;2022-10-31T09:03:33;99435.97;;;10.76;100.00
8318;BME280;4196;48.926;8.964;2022-10-31T09:06:19;99442.03;;;10.79;100.00
8318;BME280;4196;48.926;8.964;2022-10-31T09:09:07;99436.84;;;10.85;100.00
8318;BME280;4196;48.926;8.964;2022-10-31T09:11:54;99425.63;;;10.83;100.00
8318;BME280;4196;48.926;8.964;2022-10-31T09:14:59;99423.91;;;10.92;100.00
8318;BME280;4196;48.926;8.964;2022-10-31T09:17:55;99442.09;;;11.13;100.00
8318;BME280;4196;48.926;8.964;2022-10-31T09:21:00;99420.50;;;11.17;100.00
8318;BME280;4196;48.926;8.964;2022-10-31T09:23:49;99440.38;;;11.40;100.00
8318;BME280;4196;48.926;8.964;2022-10-31T09:26:35;99431.72;;;11.41;100.00
8318;BME280;4196;48.926;8.964;2022-10-31T09:29:54;99417.91;;;11.49;100.00
8318;BME280;4196;48.926;8.964;2022-10-31T09:32:40;99416.16;;;11.59;100.00
8318;BME280;4196;48.926;8.964;2022-10-31T09:35:27;99441.25;;;11.86;100.00
8318;BME280;4196;48.926;8.964;2022-10-31T09:38:16;99417.84;;;12.00;100.00
8318;BME280;4196;48.926;8.964;2022-10-31T09:44:49;99433.28;;;12.43;100.00
8318;BME280;4196;48.926;8.964;2022-10-31T09:47:22;99437.53;;;12.59;100.00
8318;BME280;4196;48.926;8.964;2022-10-31T09:50:53;99419.31;;;12.68;100.00
8318;BME280;4196;48.926;8.964;2022-10-31T09:54:13;99443.34;;;13.07;100.00
8318;BME280;4196;48.926;8.964;2022-10-31T09:57:00;99451.13;;;13.05;100.00
8318;BME280;4196;48.926;8.964;2022-10-31T09:59:49;99404.44;;;12.90;100.00
8318;BME280;4196;48.926;8.964;2022-10-31T10:05:43;99438.88;;;13.27;100.00
8318;BME280;4196;48.926;8.964;2022-10-31T10:08:39;99431.91;;;13.33;100.00
8318;BME280;4196;48.926;8.964;2022-10-31T10:12:15;99430.16;;;13.38;100.00
8318;BME280;4196;48.926;8.964;2022-10-31T10:18:12;99423.13;;;13.49;100.00
8318;BME280;4196;48.926;8.964;2022-10-31T10:27:41;99407.13;;;13.89;100.00
8318;BME280;4196;48.926;8.964;2022-10-31T10:30:41;99400.00;;;14.05;100.00
8318;BME280;4196;48.926;8.964;2022-10-31T10:33:33;99402.34;;;14.26;100.00
8318;BME280;4196;48.926;8.964;2022-10-31T10:36:28;99373.53;;;14.40;100.00
8318;BME280;4196;48.926;8.964;2022-10-31T10:39:21;99399.38;;;14.58;100.00
8318;BME280;4196;48.926;8.964;2022-10-31T10:42:15;99390.63;;;14.62;100.00
8318;BME280;4196;48.926;8.964;2022-10-31T10:45:20;99384.50;;;14.65;100.00
8318;BME280;4196;48.926;8.964;2022-10-31T10:49:00;99385.72;;;15.01;100.00
8318;BME280;4196;48.926;8.964;2022-10-31T10:51:50;99382.97;;;15.10;100.00
8318;BME280;4196;48.926;8.964;2022-10-31T10:58:08;99362.19;;;15.04;100.00
8318;BME280;4196;48.926;8.964;2022-10-31T11:00:55;99379.22;;;15.27;100.00
8318;BME280;4196;48.926;8.964;2022-10-31T11:03:42;99363.47;;;15.33;100.00
8318;BME280;4196;48.926;8.964;2022-10-31T11:06:29;99352.16;;;15.34;100.00
8318;BME280;4196;48.926;8.964;2022-10-31T11:09:16;99359.59;;;15.54;100.00
8318;BME280;4196;48.926;8.964;2022-10-31T11:12:17;99339.06;;;15.37;100.00
8318;BME280;4196;48.926;8.964;2022-10-31T11:15:26;99328.34;;;15.52;100.00
8318;BME280;4196;48.926;8.964;2022-10-31T11:18:26;99331.19;;;15.88;100.00
8318;BME280;4196;48.926;8.964;2022-10-31T11:21:29;99330.38;;;15.83;100.00
8318;BME280;4196;48.926;8.964;2022-10-31T11:24:18;99318.97;;;15.87;100.00
8318;BME280;4196;48.926;8.964;2022-10-31T11:30:05;99317.84;;;16.00;100.00
8318;BME280;4196;48.926;8.964;2022-10-31T11:32:52;99307.72;;;15.85;100.00
8318;BME280;4196;48.926;8.964;2022-10-31T11:35:39;99291.34;;;15.77;100.00
8318;BME280;4196;48.926;8.964;2022-10-31T11:38:34;99297.16;;;15.91;100.00
8318;BME280;4196;48.926;8.964;2022-10-31T11:41:28;99292.59;;;16.02;100.00
8318;BME280;4196;48.926;8.964;2022-10-31T11:44:19;99292.50;;;16.05;100.00
8318;BME280;4196;48.926;8.964;2022-10-31T11:47:15;99317.03;;;16.38;100.00
8318;BME280;4196;48.926;8.964;2022-10-31T11:50:15;99296.44;;;16.25;100.00
8318;BME280;4196;48.926;8.964;2022-10-31T11:53:24;99298.91;;;16.31;100.00
8318;BME280;4196;48.926;8.964;2022-10-31T11:56:15;99276.28;;;16.30;100.00
8318;BME280;4196;48.926;8.964;2022-10-31T11:59:04;99307.25;;;16.48;100.00
8318;BME280;4196;48.926;8.964;2022-10-31T12:01:52;99303.41;;;16.64;100.00
8318;BME280;4196;48.926;8.964;2022-10-31T12:04:44;99269.84;;;16.45;100.00
8318;BME280;4196;48.926;8.964;2022-10-31T12:07:32;99289.84;;;16.47;100.00
8318;BME280;4196;48.926;8.964;2022-10-31T12:10:21;99264.50;;;16.51;100.00
8318;BME280;4196;48.926;8.964;2022-10-31T12:13:40;99282.63;;;16.58;100.00
8318;BME280;4196;48.926;8.964;2022-10-31T12:16:36;99276.28;;;16.69;100.00
8318;BME280;4196;48.926;8.964;2022-10-31T12:22:14;99258.94;;;17.02;100.00
8318;BME280;4196;48.926;8.964;2022-10-31T12:25:25;99259.03;;;16.97;100.00
8318;BME280;4196;48.926;8.964;2022-10-31T12:37:58;99237.78;;;17.09;100.00
8318;BME280;4196;48.926;8.964;2022-10-31T12:57:39;99213.13;;;16.85;100.00
8318;BME280;4196;48.926;8.964;2022-10-31T13:00:19;99181.72;;;16.87;100.00
8318;BME280;4196;48.926;8.964;2022-10-31T13:03:32;99186.63;;;16.63;100.00
8318;BME280;4196;48.926;8.964;2022-10-31T13:06:32;99172.81;;;16.58;100.00
8318;BME280;4196;48.926;8.964;2022-10-31T13:09:46;99178.19;;;16.52;100.00
8318;BME280;4196;48.926;8.964;2022-10-31T13:12:34;99159.16;;;16.47;100.00
8318;BME280;4196;48.926;8.964;2022-10-31T13:15:32;99147.13;;;16.40;100.00
8318;BME280;4196;48.926;8.964;2022-10-31T13:18:27;99162.69;;;16.46;100.00
8318;BME280;4196;48.926;8.964;2022-10-31T13:21:20;99146.50;;;16.30;100.00
8318;BME280;4196;48.926;8.964;2022-10-31T13:24:15;99169.09;;;16.33;100.00
8318;BME280;4196;48.926;8.964;2022-10-31T13:27:15;99141.22;;;15.96;100.00
8318;BME280;4196;48.926;8.964;2022-10-31T13:30:15;99166.06;;;16.14;100.00
8318;BME280;4196;48.926;8.964;2022-10-31T13:33:25;99170.69;;;16.38;100.00
8318;BME280;4196;48.926;8.964;2022-10-31T13:36:44;99182.03;;;16.73;100.00
8318;BME280;4196;48.926;8.964;2022-10-31T13:42:55;99144.44;;;17.41;100.00
8318;BME280;4196;48.926;8.964;2022-10-31T13:45:52;99145.50;;;17.34;100.00
8318;BME280;4196;48.926;8.964;2022-10-31T13:48:40;99153.28;;;17.37;100.00
8318;BME280;4196;48.926;8.964;2022-10-31T13:51:31;99163.63;;;17.42;100.00
8318;BME280;4196;48.926;8.964;2022-10-31T13:54:39;99168.41;;;17.27;100.00
8318;BME280;4196;48.926;8.964;2022-10-31T13:57:30;99154.56;;;17.22;100.00
8318;BME280;4196;48.926;8.964;2022-10-31T14:03:18;99130.63;;;16.74;100.00
8318;BME280;4196;48.926;8.964;2022-10-31T14:06:43;99147.31;;;16.68;100.00
8318;BME280;4196;48.926;8.964;2022-10-31T14:09:34;99124.66;;;16.33;100.00
8318;BME280;4196;48.926;8.964;2022-10-31T14:12:31;99127.41;;;16.28;100.00
8318;BME280;4196;48.926;8.964;2022-10-31T14:15:24;99112.00;;;16.16;100.00
8318;BME280;4196;48.926;8.964;2022-10-31T14:18:32;99100.28;;;15.97;100.00
8318;BME280;4196;48.926;8.964;2022-10-31T14:24:28;99113.09;;;16.07;100.00
8318;BME280;4196;48.926;8.964;2022-10-31T14:27:43;99129.94;;;15.94;100.00
8318;BME280;4196;48.926;8.964;2022-10-31T14:30:30;99106.00;;;15.77;100.00
8318;BME280;4196;48.926;8.964;2022-10-31T14:33:19;99123.84;;;15.95;100.00
8318;BME280;4196;48.926;8.964;2022-10-31T14:36:20;99118.56;;;15.97;100.00
8318;BME280;4196;48.926;8.964;2022-10-31T14:39:21;99056.78;;;15.58;100.00
8318;BME280;4196;48.926;8.964;2022-10-31T14:42:24;99108.09;;;15.98;100.00
8318;BME280;4196;48.926;8.964;2022-10-31T14:51:22;99110.22;;;16.18;100.00
8318;BME280;4196;48.926;8.964;2022-10-31T14:54:13;99102.50;;;16.13;100.00
8318;BME280;4196;48.926;8.964;2022-10-31T14:57:08;99111.88;;;16.22;100.00
8318;BME280;4196;48.926;8.964;2022-10-31T15:00:03;99103.38;;;16.12;100.00
8318;BME280;4196;48.926;8.964;2022-10-31T15:03:18;99114.00;;;16.06;100.00
8318;BME280;4196;48.926;8.964;2022-10-31T15:06:18;99108.00;;;16.01;100.00
8318;BME280;4196;48.926;8.964;2022-10-31T15:09:05;99117.59;;;16.02;100.00
8318;BME280;4196;48.926;8.964;2022-10-31T15:12:30;99105.81;;;15.83;100.00
8318;BME280;4196;48.926;8.964;2022-10-31T15:15:22;99099.03;;;15.76;100.00
8318;BME280;4196;48.926;8.964;2022-10-31T15:18:16;99116.50;;;15.72;100.00
8318;BME280;4196;48.926;8.964;2022-10-31T15:21:03;99105.59;;;15.53;100.00
8318;BME280;4196;48.926;8.964;2022-10-31T15:23:59;99087.84;;;15.30;100.00
8318;BME280;4196;48.926;8.964;2022-10-31T15:26:50;99087.09;;;15.23;100.00
8318;BME280;4196;48.926;8.964;2022-10-31T15:29:47;99103.72;;;15.19;100.00
8318;BME280;4196;48.926;8.964;2022-10-31T15:32:34;99104.88;;;15.06;100.00
8318;BME280;4196;48.926;8.964;2022-10-31T15:35:26;99065.47;;;14.77;100.00
8318;BME280;4196;48.926;8.964;2022-10-31T15:38:13;99074.09;;;14.79;100.00
8318;BME280;4196;48.926;8.964;2022-10-31T15:41:04;99100.06;;;14.85;100.00
8318;BME280;4196;48.926;8.964;2022-10-31T15:43:52;99095.63;;;14.90;100.00
8318;BME280;4196;48.926;8.964;2022-10-31T15:46:38;99089.03;;;14.70;100.00
8318;BME280;4196;48.926;8.964;2022-10-31T15:52:18;99071.03;;;14.58;100.00
8318;BME280;4196;48.926;8.964;2022-10-31T15:57:59;99060.72;;;14.50;100.00
8318;BME280;4196;48.926;8.964;2022-10-31T16:00:57;99053.91;;;14.42;100.00
8318;BME280;4196;48.926;8.964;2022-10-31T16:04:19;99044.69;;;14.25;100.00
8318;BME280;4196;48.926;8.964;2022-10-31T16:07:14;99061.34;;;14.15;100.00
8318;BME280;4196;48.926;8.964;2022-10-31T16:10:23;99038.34;;;13.88;100.00
8318;BME280;4196;48.926;8.964;2022-10-31T16:13:09;99052.31;;;13.84;100.00
8318;BME280;4196;48.926;8.964;2022-10-31T16:16:16;98996.50;;;13.49;100.00
8318;BME280;4196;48.926;8.964;2022-10-31T16:19:25;99037.84;;;13.67;100.00
8318;BME280;4196;48.926;8.964;2022-10-31T16:22:20;99009.56;;;13.44;100.00
8318;BME280;4196;48.926;8.964;2022-10-31T16:25:13;99013.16;;;13.36;100.00
8318;BME280;4196;48.926;8.964;2022-10-31T16:28:12;99008.09;;;13.26;100.00
8318;BME280;4196;48.926;8.964;2022-10-31T16:30:59;99020.22;;;13.27;100.00
8318;BME280;4196;48.926;8.964;2022-10-31T16:33:45;99006.53;;;13.10;100.00
8318;BME280;4196;48.926;8.964;2022-10-31T16:36:33;98990.41;;;12.87;100.00
8318;BME280;4196;48.926;8.964;2022-10-31T16:39:24;99041.28;;;13.04;100.00
8318;BME280;4196;48.926;8.964;2022-10-31T16:42:10;99033.63;;;12.94;100.00
8318;BME280;4196;48.926;8.964;2022-10-31T16:44:56;99028.56;;;12.83;100.00
8318;BME280;4196;48.926;8.964;2022-10-31T16:47:42;99000.25;;;12.63;100.00
8318;BME280;4196;48.926;8.964;2022-10-31T16:50:29;99029.56;;;12.71;100.00
8318;BME280;4196;48.926;8.964;2022-10-31T16:53:16;99012.50;;;12.52;100.00
8318;BME280;4196;48.926;8.964;2022-10-31T16:56:04;99003.91;;;12.44;100.00
8318;BME280;4196;48.926;8.964;2022-10-31T16:58:50;99012.59;;;12.41;100.00
8318;BME280;4196;48.926;8.964;2022-10-31T17:01:38;99027.03;;;12.65;100.00
8318;BME280;4196;48.926;8.964;2022-10-31T17:04:25;99062.50;;;12.69;100.00
8318;BME280;4196;48.926;8.964;2022-10-31T17:07:12;99047.97;;;12.53;100.00
8318;BME280;4196;48.926;8.964;2022-10-31T17:09:58;99063.53;;;12.56;100.00
8318;BME280;4196;48.926;8.964;2022-10-31T17:12:46;99048.88;;;12.47;100.00
8318;BME280;4196;48.926;8.964;2022-10-31T17:15:41;99051.38;;;12.55;100.00
8318;BME280;4196;48.926;8.964;2022-10-31T17:18:29;99042.81;;;12.47;100.00
8318;BME280;4196;48.926;8.964;2022-10-31T17:21:21;99041.16;;;12.41;100.00
8318;BME280;4196;48.926;8.964;2022-10-31T17:24:13;99071.31;;;12.54;100.00